Barcroft Research Lab Weather observations

Data are for 10 minute period ending at time listed.
 Day   Time   Solar   Ave.   Ave.  Ave.  Vector  Std.   Max.    Baro.    
  of    of     Rad.   Air    Rel.  Wind   Wind   Dev.   Wind   Press.    
Year   Day            Temp.  Hum.  Speed  Dir.   Dir.   Gust            
2014   (PST)  Kw/m2    F      %     mph   deg.   deg.    mph     mb.    
------------------------------------------------------------------------
 273   13:20     446   37.9    54   11.1   277    -99    20.1   642.50  
 273   13:30     414   37.8    55   10.4   281    -99    17.1   642.50  
 273   13:40     381   38.1    55   10.0   281    -99    17.7   642.50  
 273   13:50     383   37.8    55   11.1   283    -99    18.4   642.50  
 273   14:00     399   37.9    55    9.8   275    -99    19.6   642.50  
 273   14:10     306   37.9    56    7.7   269    -99    15.2   642.40  
 273   14:20     170   37.2    57    8.8   262    -99    15.2   642.40  
 273   14:30      67   35.9    60    8.2   262    -99    17.2   642.40  
 273   14:40      55   35.5    62   10.1   275    -99    15.9   642.40  
 273   14:50      52   35.5    63    9.7   263    -99    19.9   642.40  
 273   15:00      33   35.3    64    7.6   280    -99    13.1   642.40  
 273   15:10      21   34.9    65    7.7   271    -99    16.8   642.30  
 273   15:20      12   34.6    66    6.6   275    -99    12.0   642.30  
 273   15:30       9   34.8    65    6.6   274    -99    12.9   642.30  
 273   15:40       4   34.5    66    5.9   273    -99    11.9   642.30  
 273   15:50       1   34.4    67    4.5   262    -99     8.8   642.30  
 273   16:00       0   34.0    69    5.3   275    -99    11.2   642.30  
 273   16:10       0   33.4    70    5.6   277    -99    10.1   642.20  
 273   16:20       0   32.7    71    6.2   269    -99    10.6   642.20  
 273   16:30       0   32.4    71    6.2   275    -99     9.5   642.20  
 273   16:40       0   31.6    73    6.1   290    -99     7.5   642.20  
 273   16:50       0   30.5    75    6.0   293    -99     7.8   642.20  
 273   17:00       0   30.1    76    6.8   283    -99    10.0   642.20  
 273   17:10       0   31.3    74    6.1   274    -99    10.2   642.30  
 273   17:20       0   31.0    74    5.7   271    -99     8.8   642.30  
 273   17:30       0   31.7    74    5.5   268    -99     9.2   642.30  
 273   17:40       0   31.6    80    6.0   258    -99     8.0   642.30  
 273   17:50       0   31.1    83    6.2   249    -99     8.0   642.30  
 273   18:00       0   31.1    84    5.7   246    -99     7.1   642.30  
 273   18:10       0   30.9    86    6.2   251    -99     7.9   642.20  
 273   18:20       0   30.6    88    5.7   247    -99     7.4   642.20  
 273   18:30       0   30.4    88    5.2   248    -99     6.4   642.20  
 273   18:40       0   30.5    89    4.8   249    -99     6.4   642.20  
 273   18:50       0   30.5    91    5.7   256    -99     8.1   642.20  
 273   19:00       0   30.0    93    6.1   253    -99     8.8   642.20  
 273   19:10       0   29.6    93    7.1   247    -99     9.3   642.10  
 273   19:20       0   29.5    94    7.3   242    -99    10.8   642.10  
 273   19:30       0   29.7    94    6.2   233    -99     9.2   642.10  
 273   19:40       0   29.8    95    5.5   232    -99     8.9   642.10  
 273   19:50       0   29.9    96    5.3   234    -99    11.2   642.10  
 273   20:00       0   30.0    96    5.1   255    -99     8.6   642.10  
 273   20:10       0   29.9    97    6.8   239    -99    10.2   642.10  
 273   20:20       0   29.7    97    7.6   252    -99    10.8   642.10  
 273   20:30       0   29.7    97    7.2   245    -99     9.4   642.10  
 273   20:40       0   29.5    97    6.1   238    -99     8.1   642.10  
 273   20:50       0   29.1    98    5.6   249    -99     8.9   642.10  
 273   21:00       0   29.0    98    5.5   253    -99     8.2   642.10  
 273   21:10       0   28.8    98    4.2   257    -99     8.0   642.00  
 273   21:20       0   28.8    99    2.9   250    -99     5.8   642.00  
 273   21:30       0   29.0    99    2.2   276    -99     4.7   642.00  
 273   21:40       0   28.9    99    2.3   257    -99     5.0   642.00  
 273   21:50       0   28.8    99    2.7   289    -99     7.6   642.00  
 273   22:00       0   28.6    98    5.2   258    -99     9.3   642.00  
 273   22:10       0   28.7    96    5.4   268    -99     9.0   641.80  
 273   22:20       0   28.5    97    6.6   287    -99    12.3   641.80  
 273   22:30       0   28.4   100    6.0   294    -99     9.4   641.80  
 273   22:40       0   28.2   100    7.2   300    -99    11.6   641.80  
 273   22:50       0   27.9   100    8.1   305    -99    12.3   641.80  
 273   23:00       0   27.5   100    8.0   310    -99    11.4   641.80  
 273   23:10       0   27.2   100    9.3   307    -99    12.6   641.70  
 273   23:20       0   27.0   100    7.8   303    -99    13.1   641.70  
 273   23:30       0   27.0   100    9.1   293    -99    14.7   641.70  
 273   23:40       0   26.6    99   10.3   285    -99    13.4   641.70  
 273   23:50       0   26.5   100   10.5   286    -99    15.2   641.70  
 274    0:00       0   26.2   100    9.6   282    -99    14.5   641.70  
 274    0:10       0   25.8   100    8.8   282    -99    12.1   641.30  
 274    0:20       0   25.7   100    8.0   282    -99    11.9   641.30  
 274    0:30       0   25.7   100   10.6   282    -99    14.2   641.30  
 274    0:40       0   25.4   100    9.8   281    -99    13.0   641.30  
 274    0:50       0   25.1   100   11.1   279    -99    14.5   641.30  
 274    1:00       0   24.8   100   10.5   282    -99    14.8   641.30  
 274    1:10       0   24.7    99   11.9   276    -99    15.1   641.10  
 274    1:20       0   24.4   100   11.5   277    -99    14.5   641.10  
 274    1:30       0   24.4    94   12.1   280    -99    15.9   641.10  
 274    1:40       0   24.2    92   11.5   280    -99    15.1   641.10  
 274    1:50       0   24.1    90   12.3   282    -99    15.3   641.10  
 274    2:00       0   23.9    85   10.7   290    -99    12.9   641.10  
 274    2:10       0   23.8    77   10.8   293    -99    12.8   641.30  
 274    2:20       0   24.2    66   12.5   298    -99    15.6   641.30  
 274    2:30       0   23.7    78   13.0   295    -99    15.9   641.30  
 274    2:40       0   23.0    78   11.8   298    -99    14.5   641.30  
 274    2:50       0   22.7    76   10.5   303    -99    13.7   641.30  
 274    3:00       0   22.8    52   11.4   300    -99    13.8   641.30  
 274    3:10       0   23.4    42   11.4   301    -99    13.4   641.60  
 274    3:20       0   23.3    45   10.4   307    -99    12.7   641.60  
 274    3:30       0   23.9    41   10.8   304    -99    13.5   641.60  
 274    3:40       1   23.9    46   10.9   305    -99    14.0   641.60  
 274    3:50       5   23.6    43    9.3   317    -99    11.0   641.60  
 274    4:00      15   26.4    23    9.7   332    -99    13.4   641.60  
 274    4:10      39   28.7    20    9.4   333    -99    15.3   642.10  
 274    4:20      73   29.4    17   10.3   334    -99    14.0   642.10  
 274    4:30     116   29.1    24    8.1   322    -99    11.4   642.10  
 274    4:40     157   28.6    24    7.9   332    -99    12.4   642.10  
 274    4:50     190   29.9    19   10.8   328    -99    16.2   642.10  
 274    5:00     225   29.6    20   11.6   327    -99    18.9   642.10  
 274    5:10     260   30.0    20   11.5   328    -99    19.4   642.70  
 274    5:20     295   31.6    18   11.0   332    -99    17.2   642.70  
 274    5:30     331   32.2    17    9.8   340    -99    15.3   642.70  
 274    5:40     367   33.6    15   11.2   350    -99    20.7   642.70  
 274    5:50     403   34.5    15    9.9     4    -99    17.6   642.70  
 274    6:00     436   35.2    15    8.9     4    -99    16.2   642.70  
 274    6:10     470   35.7    14    9.0     1    -99    16.5   643.20  
 274    6:20     502   36.0    14    9.5     2    -99    18.3   643.20  
 274    6:30     533   36.4    15    9.2     6    -99    16.1   643.20  
 274    6:40     562   36.7    15    9.2     2    -99    15.8   643.20  
 274    6:50     591   36.6    15   10.0   350    -99    16.6   643.20  
 274    7:00     618   36.6    16    9.2   357    -99    16.7   643.20  
 274    7:10     644   36.5    17    9.6   344    -99    15.9   643.90  
 274    7:20     669   36.8    18    9.0   350    -99    15.6   643.90  
 274    7:30     693   37.6    17   10.5    11    -99    17.6   643.90  
 274    7:40     714   37.6    16   10.8     5    -99    20.4   643.90  
 274    7:50     734   37.8    17    9.1     0    -99    19.1   643.90  
 274    8:00     753   37.7    16   11.1    10    -99    22.0   643.90  
 274    8:10     770   37.4    19    9.9   350    -99    16.9   644.00  
 274    8:20     784   36.8    20   10.7   347    -99    16.6   644.00  
 274    8:30     798   36.7    20   10.6   341    -99    16.5   644.00  
 274    8:40     810   37.2    20   10.1   345    -99    18.0   644.00  
 274    8:50     820   36.7    18   11.2   355    -99    18.9   644.00  
 274    9:00     829   37.0    18    9.8   356    -99    15.9   644.00  
 274    9:10     836   37.3    16    9.6    11    -99    15.5   644.40  
 274    9:20     841   36.9    16   10.7    16    -99    17.0   644.40  
 274    9:30     844   37.4    17    8.9    15    -99    17.4   644.40  
 274    9:40     846   37.9    18    9.6    15    -99    14.6   644.40  
 274    9:50     845   37.5    19   10.3    20    -99    16.7   644.40  
 274   10:00     842   37.4    26    7.5    46    -99    14.2   644.40  
 274   10:10     838   37.8    23    6.5    26    -99    11.9   644.70  
 274   10:20     831   37.7    26    6.3    26    -99    12.9   644.70  
 274   10:30     822   38.5    26    4.0     4    -99    11.1   644.70  
 274   10:40     811   40.2    29    2.0   305    -99     6.1   644.70  
 274   10:50     800   42.1    31    4.2   103    -99     8.8   644.70  
 274   11:00     787   39.0    36    3.4    70    -99     7.8   644.70  
 274   11:10     773   39.4    36    2.4   103    -99     4.2   644.70  
 274   11:20     757   40.4    34    4.3   227    -99     7.6   644.70  
 274   11:30     740   38.2    36    4.8   240    -99     8.0   644.70  
 274   11:40     720   38.5    35    5.3   232    -99     8.5   644.70  
 274   11:50     699   38.2    35    5.2   227    -99    11.2   644.70  
 274   12:00     677   38.7    33    4.5   230    -99     9.7   644.70  
 274   12:10     654   39.0    33    5.2   239    -99     9.9   645.10  
 274   12:20     629   38.7    32    5.5   241    -99    10.2   645.10  
 274   12:30     603   38.4    32    5.8   247    -99    10.4   645.10  
 274   12:40     576   38.7    30    5.3   262    -99     9.8   645.10  
 274   12:50     547   38.5    32    6.2   285    -99     9.6   645.10  
 274   13:00     517   38.4    31    6.5   274    -99    11.0   645.10  
 274   13:10     487   37.7    34    6.8   293    -99     9.9   645.40  

Return to Barcroft Research Lab graphs page.


Western Regional Climate Center,wrcc@dri.edu